Flight Track Log - Related Links

Times and Time Zones

All times are in EDT time to prevent confusion due to time zone crossing. See the N330CL flight status page for this flight to view local times or setup timezone preferences in your user account.

Time Position Orientation Groundspeed Altitude Reporting Facility
EDT Latitude Longitude Course Direction KTS MPH feet Rate Location/Type
Sat 08:36:23 PM 34.2133 -119.1156 267° West 107 123 700  Level Los Angeles Center
Sat 08:37:36 PM 34.2114 -119.1550 267° West 100 115 1,900 893 Climbing Los Angeles Center
Sat 08:38:24 PM 34.1947 -119.1631 202° Southwest 77 89 2,500 818 Climbing Los Angeles Center
Sat 08:39:26 PM 34.1964 -119.1281 87° East 101 116 3,400 829 Climbing Los Angeles Center
Sat 08:40:27 PM 34.1972 -119.0922 88° East 103 119 4,200 732 Climbing Los Angeles Center
Sat 08:41:29 PM 34.2003 -119.0506 85° East 125 144 4,900 387 Climbing Los Angeles Center
Sat 08:42:31 PM 34.2025 -119.0064 87° East 134 154 5,000 49 Climbing Los Angeles Center
Sat 08:43:32 PM 34.2050 -118.9544 87° East 152 175 5,000  Level Los Angeles Center
Sat 08:44:34 PM 34.2075 -118.8861 87° East 166 191 5,000  Level Los Angeles Center
Sat 08:45:35 PM 34.2103 -118.8311 86° East 167 192 5,000  Level Los Angeles Center
Sat 08:46:37 PM 34.2133 -118.7753 86° East 167 192 5,000  Level Los Angeles Center
Sat 08:47:39 PM 34.2147 -118.7242 88° East 160 184 5,000  Level Los Angeles Center
Sat 08:48:40 PM 34.2156 -118.6714 89° East 157 181 5,000  Level Los Angeles Center
Sat 08:49:42 PM 34.2183 -118.6183 86° East 157 181 5,000  Level Los Angeles Center
Sat 08:50:44 PM 34.2217 -118.5681 85° East 154 177 5,000  Level Los Angeles Center
Sat 08:51:45 PM 34.2239 -118.5050 88° East 155 178 5,000  Level Los Angeles Center
Sat 08:52:47 PM 34.2156 -118.4558 102° East 157 181 5,000 49 Level Los Angeles Center
Sat 08:53:48 PM 34.1986 -118.4094 114° Southeast 152 175 5,100 49 Climbing Los Angeles Center
Sat 08:54:50 PM 34.1814 -118.3631 114° Southeast 152 175 5,100 -484 Level Los Angeles Center
Sat 08:55:52 PM 34.1550 -118.3294 133° Southeast 140 161 4,100 -585 Descending Los Angeles Center
Sat 08:56:53 PM 34.1308 -118.3058 141° Southeast 125 144 3,900 -732 Descending Los Angeles Center
Sat 08:57:55 PM 34.1050 -118.3397 227° Southwest 136 157 2,600 -976 Descending Los Angeles Center
Sat 08:58:56 PM 34.0797 -118.3728 227° Southwest 138 159 1,900 -732 Descending Los Angeles Center
Sat 08:59:58 PM 34.0581 -118.3997 226° Southwest 126 145 1,100 -390 Descending Los Angeles Center
Sat 09:00:59 PM 34.0364 -118.4272 226° Southwest 106 122 1,100 -439 Level Los Angeles Center
Sat 09:02:01 PM 34.0175 -118.4492 224° Southwest 100 115 200 -871 Descending Los Angeles Center

Login

Don't have an account? Register now (free) for customized features, flight alerts, and more!